sensor_id;sensor_type;location;lat;lon;timestamp;temperature;humidity
27188;DHT22;14708;50.872;5.306;2023-06-22T00:01:48;25.70;58.30
27188;DHT22;14708;50.872;5.306;2023-06-22T00:04:15;25.70;58.40
27188;DHT22;14708;50.872;5.306;2023-06-22T00:06:41;25.70;58.30
27188;DHT22;14708;50.872;5.306;2023-06-22T00:09:07;25.70;58.30
27188;DHT22;14708;50.872;5.306;2023-06-22T00:11:33;25.70;58.10
27188;DHT22;14708;50.872;5.306;2023-06-22T00:14:02;25.70;58.20
27188;DHT22;14708;50.872;5.306;2023-06-22T00:16:28;25.70;58.20
27188;DHT22;14708;50.872;5.306;2023-06-22T00:18:53;25.70;58.30
27188;DHT22;14708;50.872;5.306;2023-06-22T00:21:19;25.70;58.40
27188;DHT22;14708;50.872;5.306;2023-06-22T00:23:48;25.70;58.20
27188;DHT22;14708;50.872;5.306;2023-06-22T00:26:13;25.60;58.00
27188;DHT22;14708;50.872;5.306;2023-06-22T00:28:58;25.70;58.10
27188;DHT22;14708;50.872;5.306;2023-06-22T00:31:23;25.70;58.10
27188;DHT22;14708;50.872;5.306;2023-06-22T00:33:49;25.70;58.20
27188;DHT22;14708;50.872;5.306;2023-06-22T00:36:16;25.70;58.20
27188;DHT22;14708;50.872;5.306;2023-06-22T00:39:03;25.70;58.20
27188;DHT22;14708;50.872;5.306;2023-06-22T00:41:29;25.70;58.30
27188;DHT22;14708;50.872;5.306;2023-06-22T00:43:55;25.70;58.40
27188;DHT22;14708;50.872;5.306;2023-06-22T00:46:21;25.70;58.30
27188;DHT22;14708;50.872;5.306;2023-06-22T00:48:48;25.70;58.30
27188;DHT22;14708;50.872;5.306;2023-06-22T00:51:14;25.70;58.30
27188;DHT22;14708;50.872;5.306;2023-06-22T00:53:40;25.70;58.20
27188;DHT22;14708;50.872;5.306;2023-06-22T00:56:06;25.70;58.30
27188;DHT22;14708;50.872;5.306;2023-06-22T00:58:35;25.60;58.20
27188;DHT22;14708;50.872;5.306;2023-06-22T01:01:01;25.70;58.40
27188;DHT22;14708;50.872;5.306;2023-06-22T01:03:27;25.70;58.50
27188;DHT22;14708;50.872;5.306;2023-06-22T01:06:15;25.70;58.30
27188;DHT22;14708;50.872;5.306;2023-06-22T01:08:51;25.60;58.00
27188;DHT22;14708;50.872;5.306;2023-06-22T01:11:21;25.70;58.10
27188;DHT22;14708;50.872;5.306;2023-06-22T01:16:32;25.70;58.10
27188;DHT22;14708;50.872;5.306;2023-06-22T01:19:03;25.70;58.00
27188;DHT22;14708;50.872;5.306;2023-06-22T01:21:33;25.70;58.00
27188;DHT22;14708;50.872;5.306;2023-06-22T01:24:15;25.70;58.10
27188;DHT22;14708;50.872;5.306;2023-06-22T01:29:25;25.60;58.00
27188;DHT22;14708;50.872;5.306;2023-06-22T01:31:53;25.60;58.20
27188;DHT22;14708;50.872;5.306;2023-06-22T01:34:20;25.60;58.10
27188;DHT22;14708;50.872;5.306;2023-06-22T01:37:05;25.60;58.10
27188;DHT22;14708;50.872;5.306;2023-06-22T01:39:32;25.60;58.10
27188;DHT22;14708;50.872;5.306;2023-06-22T01:41:58;25.60;58.60
27188;DHT22;14708;50.872;5.306;2023-06-22T01:44:25;25.60;58.00
27188;DHT22;14708;50.872;5.306;2023-06-22T01:46:52;25.60;58.00
27188;DHT22;14708;50.872;5.306;2023-06-22T01:49:18;25.60;57.90
27188;DHT22;14708;50.872;5.306;2023-06-22T01:51:44;25.60;58.00
27188;DHT22;14708;50.872;5.306;2023-06-22T01:54:09;25.60;58.40
27188;DHT22;14708;50.872;5.306;2023-06-22T01:56:35;25.60;57.90
27188;DHT22;14708;50.872;5.306;2023-06-22T01:59:17;25.60;58.10
27188;DHT22;14708;50.872;5.306;2023-06-22T02:04:48;25.60;58.10
27188;DHT22;14708;50.872;5.306;2023-06-22T02:07:18;25.60;58.10
27188;DHT22;14708;50.872;5.306;2023-06-22T02:09:46;25.60;58.00
27188;DHT22;14708;50.872;5.306;2023-06-22T02:12:17;25.60;58.20
27188;DHT22;14708;50.872;5.306;2023-06-22T02:14:44;25.60;57.90
27188;DHT22;14708;50.872;5.306;2023-06-22T02:17:10;25.60;58.00
27188;DHT22;14708;50.872;5.306;2023-06-22T02:19:37;25.60;58.10
27188;DHT22;14708;50.872;5.306;2023-06-22T02:22:03;25.60;58.10
27188;DHT22;14708;50.872;5.306;2023-06-22T02:24:29;25.60;58.00
27188;DHT22;14708;50.872;5.306;2023-06-22T02:26:58;25.50;58.10
27188;DHT22;14708;50.872;5.306;2023-06-22T02:29:23;25.60;58.00
27188;DHT22;14708;50.872;5.306;2023-06-22T02:31:49;25.60;58.00
27188;DHT22;14708;50.872;5.306;2023-06-22T02:34:15;25.60;58.00
27188;DHT22;14708;50.872;5.306;2023-06-22T02:36:45;25.60;57.90
27188;DHT22;14708;50.872;5.306;2023-06-22T02:39:25;25.60;58.00
27188;DHT22;14708;50.872;5.306;2023-06-22T02:41:53;25.50;57.80
27188;DHT22;14708;50.872;5.306;2023-06-22T02:44:19;25.50;57.80
27188;DHT22;14708;50.872;5.306;2023-06-22T02:46:46;25.60;58.00
27188;DHT22;14708;50.872;5.306;2023-06-22T02:49:12;25.50;57.90
27188;DHT22;14708;50.872;5.306;2023-06-22T02:51:41;25.50;57.90
27188;DHT22;14708;50.872;5.306;2023-06-22T02:54:07;25.60;58.00
27188;DHT22;14708;50.872;5.306;2023-06-22T02:56:32;25.50;58.00
27188;DHT22;14708;50.872;5.306;2023-06-22T02:58:58;25.50;58.10
27188;DHT22;14708;50.872;5.306;2023-06-22T03:01:30;25.50;57.90
27188;DHT22;14708;50.872;5.306;2023-06-22T03:04:08;25.50;58.00
27188;DHT22;14708;50.872;5.306;2023-06-22T03:06:34;25.50;58.20
27188;DHT22;14708;50.872;5.306;2023-06-22T03:09:02;25.50;58.20
27188;DHT22;14708;50.872;5.306;2023-06-22T03:11:29;25.50;58.00
27188;DHT22;14708;50.872;5.306;2023-06-22T03:13:55;25.50;58.00
27188;DHT22;14708;50.872;5.306;2023-06-22T03:16:21;25.50;58.10
27188;DHT22;14708;50.872;5.306;2023-06-22T03:18:47;25.50;58.10
27188;DHT22;14708;50.872;5.306;2023-06-22T03:21:12;25.50;58.10
27188;DHT22;14708;50.872;5.306;2023-06-22T03:23:40;25.50;58.00
27188;DHT22;14708;50.872;5.306;2023-06-22T03:26:06;25.50;58.10
27188;DHT22;14708;50.872;5.306;2023-06-22T03:28:32;25.40;58.00
27188;DHT22;14708;50.872;5.306;2023-06-22T03:30:58;25.50;58.10
27188;DHT22;14708;50.872;5.306;2023-06-22T03:33:24;25.50;57.90
27188;DHT22;14708;50.872;5.306;2023-06-22T03:35:49;25.50;58.00
27188;DHT22;14708;50.872;5.306;2023-06-22T03:38:19;25.50;58.00
27188;DHT22;14708;50.872;5.306;2023-06-22T03:40:44;25.50;57.90
27188;DHT22;14708;50.872;5.306;2023-06-22T03:43:10;25.50;58.00
27188;DHT22;14708;50.872;5.306;2023-06-22T03:45:35;25.50;58.00
27188;DHT22;14708;50.872;5.306;2023-06-22T03:48:01;25.50;58.00
27188;DHT22;14708;50.872;5.306;2023-06-22T03:50:27;25.50;57.80
27188;DHT22;14708;50.872;5.306;2023-06-22T03:52:53;25.50;58.00
27188;DHT22;14708;50.872;5.306;2023-06-22T03:55:21;25.50;57.90
27188;DHT22;14708;50.872;5.306;2023-06-22T03:57:47;25.50;57.90
27188;DHT22;14708;50.872;5.306;2023-06-22T04:00:13;25.50;57.80
27188;DHT22;14708;50.872;5.306;2023-06-22T04:02:39;25.50;57.90
27188;DHT22;14708;50.872;5.306;2023-06-22T04:05:05;25.50;57.90
27188;DHT22;14708;50.872;5.306;2023-06-22T04:07:30;25.40;57.60
27188;DHT22;14708;50.872;5.306;2023-06-22T04:09:59;25.40;57.80
27188;DHT22;14708;50.872;5.306;2023-06-22T04:12:25;25.40;57.70
27188;DHT22;14708;50.872;5.306;2023-06-22T04:14:50;25.40;57.90
27188;DHT22;14708;50.872;5.306;2023-06-22T04:17:16;25.40;57.70
27188;DHT22;14708;50.872;5.306;2023-06-22T04:19:43;25.40;57.80
27188;DHT22;14708;50.872;5.306;2023-06-22T04:22:08;25.40;57.80
27188;DHT22;14708;50.872;5.306;2023-06-22T04:24:35;25.40;57.80
27188;DHT22;14708;50.872;5.306;2023-06-22T04:27:01;25.40;57.70
27188;DHT22;14708;50.872;5.306;2023-06-22T04:29:29;25.40;57.80
27188;DHT22;14708;50.872;5.306;2023-06-22T04:31:56;25.40;57.80
27188;DHT22;14708;50.872;5.306;2023-06-22T04:34:24;25.40;57.80
27188;DHT22;14708;50.872;5.306;2023-06-22T04:36:51;25.40;57.80
27188;DHT22;14708;50.872;5.306;2023-06-22T04:39:17;25.40;57.80
27188;DHT22;14708;50.872;5.306;2023-06-22T04:41:44;25.40;57.90
27188;DHT22;14708;50.872;5.306;2023-06-22T04:44:16;25.40;57.80
27188;DHT22;14708;50.872;5.306;2023-06-22T04:46:51;25.40;57.90
27188;DHT22;14708;50.872;5.306;2023-06-22T04:49:20;25.40;57.90
27188;DHT22;14708;50.872;5.306;2023-06-22T04:51:46;25.40;57.80
27188;DHT22;14708;50.872;5.306;2023-06-22T04:54:12;25.40;57.80
27188;DHT22;14708;50.872;5.306;2023-06-22T04:56:38;25.40;57.90
27188;DHT22;14708;50.872;5.306;2023-06-22T04:59:06;25.40;57.70
27188;DHT22;14708;50.872;5.306;2023-06-22T05:01:32;25.40;58.00
27188;DHT22;14708;50.872;5.306;2023-06-22T05:03:59;25.40;57.90
27188;DHT22;14708;50.872;5.306;2023-06-22T05:06:27;25.40;58.00
27188;DHT22;14708;50.872;5.306;2023-06-22T05:08:57;25.40;57.90
27188;DHT22;14708;50.872;5.306;2023-06-22T05:11:28;25.40;57.90
27188;DHT22;14708;50.872;5.306;2023-06-22T05:13:54;25.40;57.90
27188;DHT22;14708;50.872;5.306;2023-06-22T05:16:20;25.40;57.90
27188;DHT22;14708;50.872;5.306;2023-06-22T05:18:55;25.40;57.80
27188;DHT22;14708;50.872;5.306;2023-06-22T05:21:25;25.40;57.90
27188;DHT22;14708;50.872;5.306;2023-06-22T05:23:52;25.40;58.10
27188;DHT22;14708;50.872;5.306;2023-06-22T05:26:19;25.40;57.90
27188;DHT22;14708;50.872;5.306;2023-06-22T05:28:46;25.40;57.90
27188;DHT22;14708;50.872;5.306;2023-06-22T05:31:15;25.40;57.80
27188;DHT22;14708;50.872;5.306;2023-06-22T05:33:41;25.40;57.70
27188;DHT22;14708;50.872;5.306;2023-06-22T05:36:07;25.40;57.80
27188;DHT22;14708;50.872;5.306;2023-06-22T05:38:33;25.40;57.80
27188;DHT22;14708;50.872;5.306;2023-06-22T05:40:59;25.30;58.00
27188;DHT22;14708;50.872;5.306;2023-06-22T05:43:25;25.30;59.00
27188;DHT22;14708;50.872;5.306;2023-06-22T05:45:50;25.20;61.30
27188;DHT22;14708;50.872;5.306;2023-06-22T05:48:16;25.10;61.60
27188;DHT22;14708;50.872;5.306;2023-06-22T05:50:42;25.10;62.40
27188;DHT22;14708;50.872;5.306;2023-06-22T05:53:08;25.00;62.60
27188;DHT22;14708;50.872;5.306;2023-06-22T05:55:33;24.90;62.90
27188;DHT22;14708;50.872;5.306;2023-06-22T05:57:59;24.90;63.10
27188;DHT22;14708;50.872;5.306;2023-06-22T06:00:24;24.90;63.00
27188;DHT22;14708;50.872;5.306;2023-06-22T06:02:50;24.80;63.10
27188;DHT22;14708;50.872;5.306;2023-06-22T06:05:16;24.80;63.40
27188;DHT22;14708;50.872;5.306;2023-06-22T06:07:45;24.70;63.50
27188;DHT22;14708;50.872;5.306;2023-06-22T06:10:11;24.70;63.60
27188;DHT22;14708;50.872;5.306;2023-06-22T06:12:37;24.70;63.70
27188;DHT22;14708;50.872;5.306;2023-06-22T06:15:03;24.70;63.80
27188;DHT22;14708;50.872;5.306;2023-06-22T06:17:29;24.70;63.70
27188;DHT22;14708;50.872;5.306;2023-06-22T06:19:55;24.70;63.40
27188;DHT22;14708;50.872;5.306;2023-06-22T06:22:21;24.70;63.20
27188;DHT22;14708;50.872;5.306;2023-06-22T06:24:48;24.70;63.60
27188;DHT22;14708;50.872;5.306;2023-06-22T06:27:14;24.70;63.60
27188;DHT22;14708;50.872;5.306;2023-06-22T06:29:40;24.70;63.70
27188;DHT22;14708;50.872;5.306;2023-06-22T06:32:06;24.70;63.60
27188;DHT22;14708;50.872;5.306;2023-06-22T06:34:31;24.70;63.80
27188;DHT22;14708;50.872;5.306;2023-06-22T06:36:57;24.70;63.80
27188;DHT22;14708;50.872;5.306;2023-06-22T06:39:23;24.70;63.80
27188;DHT22;14708;50.872;5.306;2023-06-22T06:41:48;24.80;63.90
27188;DHT22;14708;50.872;5.306;2023-06-22T06:44:14;24.80;63.60
27188;DHT22;14708;50.872;5.306;2023-06-22T06:46:40;24.90;63.20
27188;DHT22;14708;50.872;5.306;2023-06-22T06:49:07;25.00;63.10
27188;DHT22;14708;50.872;5.306;2023-06-22T06:51:32;25.00;63.00
27188;DHT22;14708;50.872;5.306;2023-06-22T06:53:58;25.10;63.20
27188;DHT22;14708;50.872;5.306;2023-06-22T06:56:24;25.00;62.90
27188;DHT22;14708;50.872;5.306;2023-06-22T06:58:51;25.00;63.10
27188;DHT22;14708;50.872;5.306;2023-06-22T07:01:19;25.00;62.80
27188;DHT22;14708;50.872;5.306;2023-06-22T07:03:45;25.00;63.00
27188;DHT22;14708;50.872;5.306;2023-06-22T07:06:10;25.10;62.90
27188;DHT22;14708;50.872;5.306;2023-06-22T07:08:37;25.20;62.50
27188;DHT22;14708;50.872;5.306;2023-06-22T07:11:02;25.20;62.10
27188;DHT22;14708;50.872;5.306;2023-06-22T07:13:28;25.20;61.70
27188;DHT22;14708;50.872;5.306;2023-06-22T07:15:54;25.20;61.50
27188;DHT22;14708;50.872;5.306;2023-06-22T07:18:19;25.20;61.30
27188;DHT22;14708;50.872;5.306;2023-06-22T07:20:45;25.20;61.10
27188;DHT22;14708;50.872;5.306;2023-06-22T07:23:11;25.20;61.40
27188;DHT22;14708;50.872;5.306;2023-06-22T07:25:36;25.10;61.30
27188;DHT22;14708;50.872;5.306;2023-06-22T07:28:05;25.10;61.00
27188;DHT22;14708;50.872;5.306;2023-06-22T07:30:33;25.10;61.40
27188;DHT22;14708;50.872;5.306;2023-06-22T07:32:59;25.10;61.40
27188;DHT22;14708;50.872;5.306;2023-06-22T07:35:31;25.10;61.30
27188;DHT22;14708;50.872;5.306;2023-06-22T07:37:57;25.10;61.20
27188;DHT22;14708;50.872;5.306;2023-06-22T07:40:23;25.20;61.30
27188;DHT22;14708;50.872;5.306;2023-06-22T07:42:48;25.10;61.30
27188;DHT22;14708;50.872;5.306;2023-06-22T07:45:17;25.20;61.10
27188;DHT22;14708;50.872;5.306;2023-06-22T07:47:42;25.10;60.90
27188;DHT22;14708;50.872;5.306;2023-06-22T07:50:08;25.20;60.70
27188;DHT22;14708;50.872;5.306;2023-06-22T07:52:34;25.10;60.70
27188;DHT22;14708;50.872;5.306;2023-06-22T07:55:00;25.10;60.90
27188;DHT22;14708;50.872;5.306;2023-06-22T07:57:25;25.10;60.80
27188;DHT22;14708;50.872;5.306;2023-06-22T08:00:03;25.00;60.60
27188;DHT22;14708;50.872;5.306;2023-06-22T08:02:44;25.10;60.40
27188;DHT22;14708;50.872;5.306;2023-06-22T08:05:10;25.10;60.60
27188;DHT22;14708;50.872;5.306;2023-06-22T08:07:37;25.10;60.60
27188;DHT22;14708;50.872;5.306;2023-06-22T08:10:03;25.10;60.70
27188;DHT22;14708;50.872;5.306;2023-06-22T08:12:29;25.10;61.10
27188;DHT22;14708;50.872;5.306;2023-06-22T08:14:55;25.10;61.40
27188;DHT22;14708;50.872;5.306;2023-06-22T08:17:26;25.10;61.60
27188;DHT22;14708;50.872;5.306;2023-06-22T08:19:51;25.10;61.80
27188;DHT22;14708;50.872;5.306;2023-06-22T08:22:17;25.10;61.90
27188;DHT22;14708;50.872;5.306;2023-06-22T08:24:44;25.20;62.10
27188;DHT22;14708;50.872;5.306;2023-06-22T08:27:10;25.20;61.90
27188;DHT22;14708;50.872;5.306;2023-06-22T08:29:40;25.20;62.00
27188;DHT22;14708;50.872;5.306;2023-06-22T08:32:08;25.20;61.80
27188;DHT22;14708;50.872;5.306;2023-06-22T08:34:34;25.20;62.80
27188;DHT22;14708;50.872;5.306;2023-06-22T08:37:00;25.20;61.40
27188;DHT22;14708;50.872;5.306;2023-06-22T08:39:26;25.20;61.40
27188;DHT22;14708;50.872;5.306;2023-06-22T08:41:53;25.20;61.50
27188;DHT22;14708;50.872;5.306;2023-06-22T08:44:19;25.20;61.30
27188;DHT22;14708;50.872;5.306;2023-06-22T08:46:45;25.20;61.10
27188;DHT22;14708;50.872;5.306;2023-06-22T08:49:10;25.20;61.10
27188;DHT22;14708;50.872;5.306;2023-06-22T08:51:36;25.20;60.90
27188;DHT22;14708;50.872;5.306;2023-06-22T08:54:02;25.20;61.10
27188;DHT22;14708;50.872;5.306;2023-06-22T08:56:27;25.20;60.90
27188;DHT22;14708;50.872;5.306;2023-06-22T08:58:53;25.20;61.00
27188;DHT22;14708;50.872;5.306;2023-06-22T09:01:19;25.20;61.00
27188;DHT22;14708;50.872;5.306;2023-06-22T09:03:45;25.20;61.00
27188;DHT22;14708;50.872;5.306;2023-06-22T09:06:20;25.20;60.80
27188;DHT22;14708;50.872;5.306;2023-06-22T09:08:45;25.20;60.80
27188;DHT22;14708;50.872;5.306;2023-06-22T09:11:12;25.20;60.70
27188;DHT22;14708;50.872;5.306;2023-06-22T09:13:38;25.20;60.20
27188;DHT22;14708;50.872;5.306;2023-06-22T09:16:03;25.20;60.40
27188;DHT22;14708;50.872;5.306;2023-06-22T09:18:29;25.20;60.40
27188;DHT22;14708;50.872;5.306;2023-06-22T09:20:55;25.20;60.40
27188;DHT22;14708;50.872;5.306;2023-06-22T09:23:21;25.20;60.70
27188;DHT22;14708;50.872;5.306;2023-06-22T09:25:47;25.30;60.60
27188;DHT22;14708;50.872;5.306;2023-06-22T09:28:14;25.30;61.00
27188;DHT22;14708;50.872;5.306;2023-06-22T09:30:40;25.30;60.90
27188;DHT22;14708;50.872;5.306;2023-06-22T09:33:05;25.30;61.10
27188;DHT22;14708;50.872;5.306;2023-06-22T09:35:31;25.30;60.80
27188;DHT22;14708;50.872;5.306;2023-06-22T09:37:56;25.30;61.00
27188;DHT22;14708;50.872;5.306;2023-06-22T09:40:22;25.40;60.90
27188;DHT22;14708;50.872;5.306;2023-06-22T09:42:47;25.40;60.90
27188;DHT22;14708;50.872;5.306;2023-06-22T09:45:13;25.30;60.70
27188;DHT22;14708;50.872;5.306;2023-06-22T09:47:39;25.30;60.70
27188;DHT22;14708;50.872;5.306;2023-06-22T09:50:05;25.30;60.70
27188;DHT22;14708;50.872;5.306;2023-06-22T09:52:31;25.30;60.50
27188;DHT22;14708;50.872;5.306;2023-06-22T09:54:56;25.30;60.50
27188;DHT22;14708;50.872;5.306;2023-06-22T09:57:22;25.40;61.40
27188;DHT22;14708;50.872;5.306;2023-06-22T09:59:48;25.40;60.70
27188;DHT22;14708;50.872;5.306;2023-06-22T10:02:13;25.30;61.40
27188;DHT22;14708;50.872;5.306;2023-06-22T10:04:39;25.40;61.40
27188;DHT22;14708;50.872;5.306;2023-06-22T10:07:05;25.30;62.00
27188;DHT22;14708;50.872;5.306;2023-06-22T10:09:31;25.30;64.70
27188;DHT22;14708;50.872;5.306;2023-06-22T10:11:57;25.20;65.90
27188;DHT22;14708;50.872;5.306;2023-06-22T10:14:23;25.20;66.10
27188;DHT22;14708;50.872;5.306;2023-06-22T10:16:50;25.20;66.80
27188;DHT22;14708;50.872;5.306;2023-06-22T10:19:16;25.20;67.60
27188;DHT22;14708;50.872;5.306;2023-06-22T10:21:42;25.20;68.00
27188;DHT22;14708;50.872;5.306;2023-06-22T10:24:07;25.10;68.90
27188;DHT22;14708;50.872;5.306;2023-06-22T10:26:34;25.10;69.90
27188;DHT22;14708;50.872;5.306;2023-06-22T10:29:01;25.10;70.40
27188;DHT22;14708;50.872;5.306;2023-06-22T10:31:27;25.00;70.90
27188;DHT22;14708;50.872;5.306;2023-06-22T10:33:53;25.10;70.90
27188;DHT22;14708;50.872;5.306;2023-06-22T10:36:19;25.10;70.80
27188;DHT22;14708;50.872;5.306;2023-06-22T10:38:44;25.10;71.10
27188;DHT22;14708;50.872;5.306;2023-06-22T10:41:10;25.10;69.30
27188;DHT22;14708;50.872;5.306;2023-06-22T10:43:38;25.10;68.80
27188;DHT22;14708;50.872;5.306;2023-06-22T10:46:03;25.10;68.80
27188;DHT22;14708;50.872;5.306;2023-06-22T10:48:29;25.20;68.20
27188;DHT22;14708;50.872;5.306;2023-06-22T10:50:55;25.20;67.90
27188;DHT22;14708;50.872;5.306;2023-06-22T10:53:21;25.20;68.10
27188;DHT22;14708;50.872;5.306;2023-06-22T10:55:47;25.20;68.50
27188;DHT22;14708;50.872;5.306;2023-06-22T10:58:13;25.20;68.90
27188;DHT22;14708;50.872;5.306;2023-06-22T11:00:38;25.20;69.00
27188;DHT22;14708;50.872;5.306;2023-06-22T11:03:04;25.20;68.10
27188;DHT22;14708;50.872;5.306;2023-06-22T11:05:29;25.20;69.00
27188;DHT22;14708;50.872;5.306;2023-06-22T11:07:55;25.20;69.00
27188;DHT22;14708;50.872;5.306;2023-06-22T11:10:21;25.20;68.00
27188;DHT22;14708;50.872;5.306;2023-06-22T11:12:46;25.30;67.70
27188;DHT22;14708;50.872;5.306;2023-06-22T11:15:12;25.30;67.60
27188;DHT22;14708;50.872;5.306;2023-06-22T11:17:38;25.30;67.40
27188;DHT22;14708;50.872;5.306;2023-06-22T11:20:04;25.40;68.00
27188;DHT22;14708;50.872;5.306;2023-06-22T11:22:36;25.40;68.00
27188;DHT22;14708;50.872;5.306;2023-06-22T11:25:02;25.40;67.30
27188;DHT22;14708;50.872;5.306;2023-06-22T11:27:27;25.40;67.60
27188;DHT22;14708;50.872;5.306;2023-06-22T11:29:53;25.50;67.30
27188;DHT22;14708;50.872;5.306;2023-06-22T11:32:19;25.50;66.80
27188;DHT22;14708;50.872;5.306;2023-06-22T11:35:00;25.50;66.50
27188;DHT22;14708;50.872;5.306;2023-06-22T11:37:26;25.50;66.60
27188;DHT22;14708;50.872;5.306;2023-06-22T11:39:51;25.50;66.60
27188;DHT22;14708;50.872;5.306;2023-06-22T11:42:20;25.50;66.50
27188;DHT22;14708;50.872;5.306;2023-06-22T11:44:45;25.50;66.30
27188;DHT22;14708;50.872;5.306;2023-06-22T11:47:11;25.50;66.20
27188;DHT22;14708;50.872;5.306;2023-06-22T11:49:37;25.50;66.00
27188;DHT22;14708;50.872;5.306;2023-06-22T11:52:02;25.50;66.20
27188;DHT22;14708;50.872;5.306;2023-06-22T11:54:28;25.50;65.80
27188;DHT22;14708;50.872;5.306;2023-06-22T11:56:53;25.50;66.00
27188;DHT22;14708;50.872;5.306;2023-06-22T11:59:19;25.50;65.80
27188;DHT22;14708;50.872;5.306;2023-06-22T12:01:47;25.40;65.90
27188;DHT22;14708;50.872;5.306;2023-06-22T12:04:13;25.40;65.60
27188;DHT22;14708;50.872;5.306;2023-06-22T12:06:39;25.40;65.60
27188;DHT22;14708;50.872;5.306;2023-06-22T12:09:07;25.40;65.40
27188;DHT22;14708;50.872;5.306;2023-06-22T12:11:33;25.40;65.20
27188;DHT22;14708;50.872;5.306;2023-06-22T12:13:58;25.40;65.10
27188;DHT22;14708;50.872;5.306;2023-06-22T12:16:30;25.40;65.20
27188;DHT22;14708;50.872;5.306;2023-06-22T12:18:56;25.40;65.20
27188;DHT22;14708;50.872;5.306;2023-06-22T12:21:21;25.40;65.40
27188;DHT22;14708;50.872;5.306;2023-06-22T12:23:47;25.40;65.20
27188;DHT22;14708;50.872;5.306;2023-06-22T12:26:13;25.40;65.50
27188;DHT22;14708;50.872;5.306;2023-06-22T12:28:38;25.40;65.60
27188;DHT22;14708;50.872;5.306;2023-06-22T12:31:04;25.40;65.70
27188;DHT22;14708;50.872;5.306;2023-06-22T12:33:29;25.40;65.50
27188;DHT22;14708;50.872;5.306;2023-06-22T12:35:56;25.40;65.40
27188;DHT22;14708;50.872;5.306;2023-06-22T12:38:22;25.40;65.70
27188;DHT22;14708;50.872;5.306;2023-06-22T12:40:47;25.40;65.60
27188;DHT22;14708;50.872;5.306;2023-06-22T12:43:14;25.40;65.90
27188;DHT22;14708;50.872;5.306;2023-06-22T12:45:40;25.40;66.10
27188;DHT22;14708;50.872;5.306;2023-06-22T12:48:06;25.30;66.20
27188;DHT22;14708;50.872;5.306;2023-06-22T12:50:32;25.30;66.50
27188;DHT22;14708;50.872;5.306;2023-06-22T12:52:57;25.20;66.80
27188;DHT22;14708;50.872;5.306;2023-06-22T12:55:23;25.20;66.50
27188;DHT22;14708;50.872;5.306;2023-06-22T12:57:48;25.20;66.50
27188;DHT22;14708;50.872;5.306;2023-06-22T13:00:15;25.20;66.50
27188;DHT22;14708;50.872;5.306;2023-06-22T13:02:40;25.20;66.50
27188;DHT22;14708;50.872;5.306;2023-06-22T13:05:06;25.20;66.40
27188;DHT22;14708;50.872;5.306;2023-06-22T13:07:32;25.20;67.10
27188;DHT22;14708;50.872;5.306;2023-06-22T13:09:57;25.20;67.20
27188;DHT22;14708;50.872;5.306;2023-06-22T13:12:23;25.20;67.60
27188;DHT22;14708;50.872;5.306;2023-06-22T13:14:49;25.20;67.70
27188;DHT22;14708;50.872;5.306;2023-06-22T13:17:15;25.20;67.40
27188;DHT22;14708;50.872;5.306;2023-06-22T13:19:41;25.10;68.00
27188;DHT22;14708;50.872;5.306;2023-06-22T13:22:32;25.20;68.10
27188;DHT22;14708;50.872;5.306;2023-06-22T13:24:59;25.10;68.40
27188;DHT22;14708;50.872;5.306;2023-06-22T13:27:25;25.10;68.60
27188;DHT22;14708;50.872;5.306;2023-06-22T13:29:52;25.10;67.80
27188;DHT22;14708;50.872;5.306;2023-06-22T13:32:18;25.00;69.00
27188;DHT22;14708;50.872;5.306;2023-06-22T13:34:43;25.10;68.70
27188;DHT22;14708;50.872;5.306;2023-06-22T13:37:09;25.10;68.40
27188;DHT22;14708;50.872;5.306;2023-06-22T13:39:35;25.10;68.20
27188;DHT22;14708;50.872;5.306;2023-06-22T13:42:00;25.00;68.20
27188;DHT22;14708;50.872;5.306;2023-06-22T13:44:26;25.00;68.00
27188;DHT22;14708;50.872;5.306;2023-06-22T13:46:55;25.00;68.30
27188;DHT22;14708;50.872;5.306;2023-06-22T13:49:20;25.00;68.20
27188;DHT22;14708;50.872;5.306;2023-06-22T13:51:47;25.00;68.40
27188;DHT22;14708;50.872;5.306;2023-06-22T13:54:13;24.90;68.60
27188;DHT22;14708;50.872;5.306;2023-06-22T13:56:39;24.90;68.40
27188;DHT22;14708;50.872;5.306;2023-06-22T13:59:05;25.00;68.20
27188;DHT22;14708;50.872;5.306;2023-06-22T14:01:32;24.90;68.10
27188;DHT22;14708;50.872;5.306;2023-06-22T14:03:57;24.90;68.40
27188;DHT22;14708;50.872;5.306;2023-06-22T14:06:23;24.90;68.80
27188;DHT22;14708;50.872;5.306;2023-06-22T14:08:48;24.90;68.80
27188;DHT22;14708;50.872;5.306;2023-06-22T14:11:16;24.80;68.90
27188;DHT22;14708;50.872;5.306;2023-06-22T14:13:41;24.80;69.00
27188;DHT22;14708;50.872;5.306;2023-06-22T14:16:08;24.80;69.20
27188;DHT22;14708;50.872;5.306;2023-06-22T14:18:34;24.80;69.20
27188;DHT22;14708;50.872;5.306;2023-06-22T14:20:59;24.70;69.40
27188;DHT22;14708;50.872;5.306;2023-06-22T14:23:25;24.70;69.40
27188;DHT22;14708;50.872;5.306;2023-06-22T14:25:51;24.70;69.10
27188;DHT22;14708;50.872;5.306;2023-06-22T14:28:16;24.70;69.10
27188;DHT22;14708;50.872;5.306;2023-06-22T14:30:42;24.70;69.20
27188;DHT22;14708;50.872;5.306;2023-06-22T14:33:08;24.70;69.20
27188;DHT22;14708;50.872;5.306;2023-06-22T14:35:33;24.70;69.20
27188;DHT22;14708;50.872;5.306;2023-06-22T14:37:59;24.70;69.30
27188;DHT22;14708;50.872;5.306;2023-06-22T14:40:24;24.70;69.20
27188;DHT22;14708;50.872;5.306;2023-06-22T14:42:50;24.70;69.20
27188;DHT22;14708;50.872;5.306;2023-06-22T14:45:15;24.70;69.10
27188;DHT22;14708;50.872;5.306;2023-06-22T14:47:41;24.70;68.70
27188;DHT22;14708;50.872;5.306;2023-06-22T14:50:07;24.70;68.80
27188;DHT22;14708;50.872;5.306;2023-06-22T14:52:32;24.70;68.50
27188;DHT22;14708;50.872;5.306;2023-06-22T14:54:58;24.70;68.20
27188;DHT22;14708;50.872;5.306;2023-06-22T14:57:24;24.80;68.20
27188;DHT22;14708;50.872;5.306;2023-06-22T14:59:50;24.70;68.30
27188;DHT22;14708;50.872;5.306;2023-06-22T15:02:16;24.70;68.30
27188;DHT22;14708;50.872;5.306;2023-06-22T15:04:41;24.70;68.40
27188;DHT22;14708;50.872;5.306;2023-06-22T15:07:07;24.70;68.40
27188;DHT22;14708;50.872;5.306;2023-06-22T15:09:33;24.70;68.30
27188;DHT22;14708;50.872;5.306;2023-06-22T15:11:59;24.70;68.60
27188;DHT22;14708;50.872;5.306;2023-06-22T15:14:27;24.70;68.50
27188;DHT22;14708;50.872;5.306;2023-06-22T15:16:53;24.70;68.50
27188;DHT22;14708;50.872;5.306;2023-06-22T15:19:18;24.60;68.80
27188;DHT22;14708;50.872;5.306;2023-06-22T15:21:44;24.60;69.00
27188;DHT22;14708;50.872;5.306;2023-06-22T15:24:10;24.60;69.20
27188;DHT22;14708;50.872;5.306;2023-06-22T15:26:36;24.60;69.00
27188;DHT22;14708;50.872;5.306;2023-06-22T15:29:02;24.60;68.60
27188;DHT22;14708;50.872;5.306;2023-06-22T15:31:27;24.60;68.60
27188;DHT22;14708;50.872;5.306;2023-06-22T15:33:53;24.60;68.70
27188;DHT22;14708;50.872;5.306;2023-06-22T15:36:19;24.60;69.40